Aviation Digital Data Service (ADDS)

Output produced by METARs form (1155 UTC 22 March 2019)
found at http://www.aviationweather.gov/metar/data/
 
METAR text: EGLL 221150Z AUTO 20008G20KT 160V230 9999 OVC012 10/07 Q1029 BECMG BKN016
Conditions at: EGLL (LONDON/HEATHROW , GB) observed 1150 UTC 22 March 2019
Temperature: 10.0°C (50°F)
Dewpoint: 7.0°C (45°F) [RH = 82%]
Pressure (altimeter): 30.38 inches Hg (1029.0 mb)
Winds: from the SSW (200 degrees) at 9 MPH (8 knots; 4.1 m/s)
gusting to 23 MPH (20 knots; 10.3 m/s)
Visibility: 6 or more miles (10+ km)
Ceiling: 1200 feet AGL
Clouds: overcast cloud deck at 1200 feet AGL
Weather: no significant weather observed at this time

METAR text: EGLL 221120Z AUTO 23008KT 190V250 9999 BKN011 OVC015 10/07 Q1029 BECMG BKN016
Conditions at: EGLL (LONDON/HEATHROW , GB) observed 1120 UTC 22 March 2019
Temperature: 10.0°C (50°F)
Dewpoint: 7.0°C (45°F) [RH = 82%]
Pressure (altimeter): 30.38 inches Hg (1029.0 mb)
Winds: from the SW (230 degrees) at 9 MPH (8 knots; 4.1 m/s)
Visibility: 6 or more miles (10+ km)
Ceiling: 1100 feet AGL
Clouds: broken clouds at 1100 feet AGL
overcast cloud deck at 1500 feet AGL
Weather: no significant weather observed at this time

METAR text: EGLL 221050Z AUTO 22008KT 170V260 9999 OVC010 09/07 Q1029 NOSIG
Conditions at: EGLL (LONDON/HEATHROW , GB) observed 1050 UTC 22 March 2019
Temperature: 9.0°C (48°F)
Dewpoint: 7.0°C (45°F) [RH = 87%]
Pressure (altimeter): 30.38 inches Hg (1029.0 mb)
Winds: from the SW (220 degrees) at 9 MPH (8 knots; 4.1 m/s)
Visibility: 6 or more miles (10+ km)
Ceiling: 1000 feet AGL
Clouds: overcast cloud deck at 1000 feet AGL
Weather: no significant weather observed at this time

METAR text: EGLL 221020Z AUTO 22008KT 190V250 9999 OVC011 09/07 Q1029 NOSIG
Conditions at: EGLL (LONDON/HEATHROW , GB) observed 1020 UTC 22 March 2019
Temperature: 9.0°C (48°F)
Dewpoint: 7.0°C (45°F) [RH = 87%]
Pressure (altimeter): 30.38 inches Hg (1029.0 mb)
Winds: from the SW (220 degrees) at 9 MPH (8 knots; 4.1 m/s)
Visibility: 6 or more miles (10+ km)
Ceiling: 1100 feet AGL
Clouds: overcast cloud deck at 1100 feet AGL
Weather: no significant weather observed at this time

METAR text: EGLL 220950Z AUTO 22009KT 9999 OVC010 10/07 Q1029 NOSIG
Conditions at: EGLL (LONDON/HEATHROW , GB) observed 0950 UTC 22 March 2019
Temperature: 10.0°C (50°F)
Dewpoint: 7.0°C (45°F) [RH = 82%]
Pressure (altimeter): 30.38 inches Hg (1029.0 mb)
Winds: from the SW (220 degrees) at 10 MPH (9 knots; 4.6 m/s)
Visibility: 6 or more miles (10+ km)
Ceiling: 1000 feet AGL
Clouds: overcast cloud deck at 1000 feet AGL
Weather: no significant weather observed at this time

METAR text: EGLL 220920Z AUTO 24010KT 9999 OVC011 09/06 Q1029 NOSIG
Conditions at: EGLL (LONDON/HEATHROW , GB) observed 0920 UTC 22 March 2019
Temperature: 9.0°C (48°F)
Dewpoint: 6.0°C (43°F) [RH = 81%]
Pressure (altimeter): 30.38 inches Hg (1029.0 mb)
Winds: from the WSW (240 degrees) at 12 MPH (10 knots; 5.1 m/s)
Visibility: 6 or more miles (10+ km)
Ceiling: 1100 feet AGL
Clouds: overcast cloud deck at 1100 feet AGL
Weather: no significant weather observed at this time

METAR text: EGLL 220850Z AUTO 22008KT 180V250 9999 OVC012 09/06 Q1029 NOSIG
Conditions at: EGLL (LONDON/HEATHROW , GB) observed 0850 UTC 22 March 2019
Temperature: 9.0°C (48°F)
Dewpoint: 6.0°C (43°F) [RH = 81%]
Pressure (altimeter): 30.38 inches Hg (1029.0 mb)
Winds: from the SW (220 degrees) at 9 MPH (8 knots; 4.1 m/s)
Visibility: 6 or more miles (10+ km)
Ceiling: 1200 feet AGL
Clouds: overcast cloud deck at 1200 feet AGL
Weather: no significant weather observed at this time

METAR text: EGLL 220820Z AUTO 21009KT 9999 OVC012 09/06 Q1029 NOSIG
Conditions at: EGLL (LONDON/HEATHROW , GB) observed 0820 UTC 22 March 2019
Temperature: 9.0°C (48°F)
Dewpoint: 6.0°C (43°F) [RH = 81%]
Pressure (altimeter): 30.38 inches Hg (1029.0 mb)
Winds: from the SSW (210 degrees) at 10 MPH (9 knots; 4.6 m/s)
Visibility: 6 or more miles (10+ km)
Ceiling: 1200 feet AGL
Clouds: overcast cloud deck at 1200 feet AGL
Weather: no significant weather observed at this time

METAR text: EGLL 220750Z AUTO 22009KT 9999 OVC012 09/06 Q1029 NOSIG
Conditions at: EGLL (LONDON/HEATHROW , GB) observed 0750 UTC 22 March 2019
Temperature: 9.0°C (48°F)
Dewpoint: 6.0°C (43°F) [RH = 81%]
Pressure (altimeter): 30.38 inches Hg (1029.0 mb)
Winds: from the SW (220 degrees) at 10 MPH (9 knots; 4.6 m/s)
Visibility: 6 or more miles (10+ km)
Ceiling: 1200 feet AGL
Clouds: overcast cloud deck at 1200 feet AGL
Weather: no significant weather observed at this time

METAR text: EGLL 220720Z AUTO 21008KT 9999 OVC013 09/06 Q1029 NOSIG
Conditions at: EGLL (LONDON/HEATHROW , GB) observed 0720 UTC 22 March 2019
Temperature: 9.0°C (48°F)
Dewpoint: 6.0°C (43°F) [RH = 81%]
Pressure (altimeter): 30.38 inches Hg (1029.0 mb)
Winds: from the SSW (210 degrees) at 9 MPH (8 knots; 4.1 m/s)
Visibility: 6 or more miles (10+ km)
Ceiling: 1300 feet AGL
Clouds: overcast cloud deck at 1300 feet AGL
Weather: no significant weather observed at this time

METAR text: EGLL 220650Z AUTO 22008KT 9999 OVC013 09/06 Q1029 BECMG BKN015
Conditions at: EGLL (LONDON/HEATHROW , GB) observed 0650 UTC 22 March 2019
Temperature: 9.0°C (48°F)
Dewpoint: 6.0°C (43°F) [RH = 81%]
Pressure (altimeter): 30.38 inches Hg (1029.0 mb)
Winds: from the SW (220 degrees) at 9 MPH (8 knots; 4.1 m/s)
Visibility: 6 or more miles (10+ km)
Ceiling: 1300 feet AGL
Clouds: overcast cloud deck at 1300 feet AGL
Weather: no significant weather observed at this time

METAR text: EGLL 220620Z AUTO 23009KT 9999 OVC013 09/06 Q1029 NOSIG
Conditions at: EGLL (LONDON/HEATHROW , GB) observed 0620 UTC 22 March 2019
Temperature: 9.0°C (48°F)
Dewpoint: 6.0°C (43°F) [RH = 81%]
Pressure (altimeter): 30.38 inches Hg (1029.0 mb)
Winds: from the SW (230 degrees) at 10 MPH (9 knots; 4.6 m/s)
Visibility: 6 or more miles (10+ km)
Ceiling: 1300 feet AGL
Clouds: overcast cloud deck at 1300 feet AGL
Weather: no significant weather observed at this time

METAR text: EGLL 220550Z AUTO 21007KT 9999 OVC013 09/06 Q1029 TEMPO BKN015
Conditions at: EGLL (LONDON/HEATHROW , GB) observed 0550 UTC 22 March 2019
Temperature: 9.0°C (48°F)
Dewpoint: 6.0°C (43°F) [RH = 81%]
Pressure (altimeter): 30.38 inches Hg (1029.0 mb)
Winds: from the SSW (210 degrees) at 8 MPH (7 knots; 3.6 m/s)
Visibility: 6 or more miles (10+ km)
Ceiling: 1300 feet AGL
Clouds: overcast cloud deck at 1300 feet AGL
Weather: no significant weather observed at this time

METAR text: EGLL 220520Z AUTO 20009KT 9999 OVC013 09/06 Q1029 NOSIG
Conditions at: EGLL (LONDON/HEATHROW , GB) observed 0520 UTC 22 March 2019
Temperature: 9.0°C (48°F)
Dewpoint: 6.0°C (43°F) [RH = 81%]
Pressure (altimeter): 30.38 inches Hg (1029.0 mb)
Winds: from the SSW (200 degrees) at 10 MPH (9 knots; 4.6 m/s)
Visibility: 6 or more miles (10+ km)
Ceiling: 1300 feet AGL
Clouds: overcast cloud deck at 1300 feet AGL
Weather: no significant weather observed at this time

METAR text: EGLL 220450Z AUTO 20008KT 9999 OVC013 09/06 Q1029 NOSIG
Conditions at: EGLL (LONDON/HEATHROW , GB) observed 0450 UTC 22 March 2019
Temperature: 9.0°C (48°F)
Dewpoint: 6.0°C (43°F) [RH = 81%]
Pressure (altimeter): 30.38 inches Hg (1029.0 mb)
Winds: from the SSW (200 degrees) at 9 MPH (8 knots; 4.1 m/s)
Visibility: 6 or more miles (10+ km)
Ceiling: 1300 feet AGL
Clouds: overcast cloud deck at 1300 feet AGL
Weather: no significant weather observed at this time

METAR text: EGLL 220420Z AUTO 19009KT 9999 OVC014 09/06 Q1029 NOSIG
Conditions at: EGLL (LONDON/HEATHROW , GB) observed 0420 UTC 22 March 2019
Temperature: 9.0°C (48°F)
Dewpoint: 6.0°C (43°F) [RH = 81%]
Pressure (altimeter): 30.38 inches Hg (1029.0 mb)
Winds: from the S (190 degrees) at 10 MPH (9 knots; 4.6 m/s)
Visibility: 6 or more miles (10+ km)
Ceiling: 1400 feet AGL
Clouds: overcast cloud deck at 1400 feet AGL
Weather: no significant weather observed at this time

METAR text: EGLL 220350Z AUTO 21007KT 9999 OVC015 10/07 Q1030 TEMPO BKN012
Conditions at: EGLL (LONDON/HEATHROW , GB) observed 0350 UTC 22 March 2019
Temperature: 10.0°C (50°F)
Dewpoint: 7.0°C (45°F) [RH = 82%]
Pressure (altimeter): 30.41 inches Hg (1030.0 mb)
Winds: from the SSW (210 degrees) at 8 MPH (7 knots; 3.6 m/s)
Visibility: 6 or more miles (10+ km)
Ceiling: 1500 feet AGL
Clouds: overcast cloud deck at 1500 feet AGL
Weather: no significant weather observed at this time

METAR text: EGLL 220320Z AUTO 20009KT 9999 OVC016 10/06 Q1030 TEMPO BKN012
Conditions at: EGLL (LONDON/HEATHROW , GB) observed 0320 UTC 22 March 2019
Temperature: 10.0°C (50°F)
Dewpoint: 6.0°C (43°F) [RH = 76%]
Pressure (altimeter): 30.41 inches Hg (1030.0 mb)
Winds: from the SSW (200 degrees) at 10 MPH (9 knots; 4.6 m/s)
Visibility: 6 or more miles (10+ km)
Ceiling: 1600 feet AGL
Clouds: overcast cloud deck at 1600 feet AGL
Weather: no significant weather observed at this time

METAR text: EGLL 220250Z AUTO 17008KT 9999 OVC017 10/07 Q1030 NOSIG
Conditions at: EGLL (LONDON/HEATHROW , GB) observed 0250 UTC 22 March 2019
Temperature: 10.0°C (50°F)
Dewpoint: 7.0°C (45°F) [RH = 82%]
Pressure (altimeter): 30.41 inches Hg (1030.0 mb)
Winds: from the S (170 degrees) at 9 MPH (8 knots; 4.1 m/s)
Visibility: 6 or more miles (10+ km)
Ceiling: 1700 feet AGL
Clouds: overcast cloud deck at 1700 feet AGL
Weather: no significant weather observed at this time

METAR text: EGLL 220220Z AUTO 20007KT 9999 OVC018 11/07 Q1030 NOSIG
Conditions at: EGLL (LONDON/HEATHROW , GB) observed 0220 UTC 22 March 2019
Temperature: 11.0°C (52°F)
Dewpoint: 7.0°C (45°F) [RH = 76%]
Pressure (altimeter): 30.41 inches Hg (1030.0 mb)
Winds: from the SSW (200 degrees) at 8 MPH (7 knots; 3.6 m/s)
Visibility: 6 or more miles (10+ km)
Ceiling: 1800 feet AGL
Clouds: overcast cloud deck at 1800 feet AGL
Weather: no significant weather observed at this time

METAR text: EGLL 220150Z AUTO 20006KT 9999 OVC019 11/07 Q1030 NOSIG
Conditions at: EGLL (LONDON/HEATHROW , GB) observed 0150 UTC 22 March 2019
Temperature: 11.0°C (52°F)
Dewpoint: 7.0°C (45°F) [RH = 76%]
Pressure (altimeter): 30.41 inches Hg (1030.0 mb)
Winds: from the SSW (200 degrees) at 7 MPH (6 knots; 3.1 m/s)
Visibility: 6 or more miles (10+ km)
Ceiling: 1900 feet AGL
Clouds: overcast cloud deck at 1900 feet AGL
Weather: no significant weather observed at this time

METAR text: EGLL 220120Z AUTO 19005KT 9999 OVC019 11/07 Q1030 NOSIG
Conditions at: EGLL (LONDON/HEATHROW , GB) observed 0120 UTC 22 March 2019
Temperature: 11.0°C (52°F)
Dewpoint: 7.0°C (45°F) [RH = 76%]
Pressure (altimeter): 30.41 inches Hg (1030.0 mb)
Winds: from the S (190 degrees) at 6 MPH (5 knots; 2.6 m/s)
Visibility: 6 or more miles (10+ km)
Ceiling: 1900 feet AGL
Clouds: overcast cloud deck at 1900 feet AGL
Weather: no significant weather observed at this time

METAR text: EGLL 220050Z AUTO 18005KT 9999 OVC020 11/08 Q1030 NOSIG
Conditions at: EGLL (LONDON/HEATHROW , GB) observed 0050 UTC 22 March 2019
Temperature: 11.0°C (52°F)
Dewpoint: 8.0°C (46°F) [RH = 82%]
Pressure (altimeter): 30.41 inches Hg (1030.0 mb)
Winds: from the S (180 degrees) at 6 MPH (5 knots; 2.6 m/s)
Visibility: 6 or more miles (10+ km)
Ceiling: 2000 feet AGL
Clouds: overcast cloud deck at 2000 feet AGL
Weather: no significant weather observed at this time

METAR text: EGLL 220020Z AUTO 18004KT 9999 OVC020 11/08 Q1030 NOSIG
Conditions at: EGLL (LONDON/HEATHROW , GB) observed 0020 UTC 22 March 2019
Temperature: 11.0°C (52°F)
Dewpoint: 8.0°C (46°F) [RH = 82%]
Pressure (altimeter): 30.41 inches Hg (1030.0 mb)
Winds: from the S (180 degrees) at 5 MPH (4 knots; 2.1 m/s)
Visibility: 6 or more miles (10+ km)
Ceiling: 2000 feet AGL
Clouds: overcast cloud deck at 2000 feet AGL
Weather: no significant weather observed at this time

METAR text: EGLL 212350Z AUTO 16006KT 9999 BKN021 11/08 Q1031 NOSIG
Conditions at: EGLL (LONDON/HEATHROW , GB) observed 2350 UTC 21 March 2019
Temperature: 11.0°C (52°F)
Dewpoint: 8.0°C (46°F) [RH = 82%]
Pressure (altimeter): 30.44 inches Hg (1031.0 mb)
Winds: from the SSE (160 degrees) at 7 MPH (6 knots; 3.1 m/s)
Visibility: 6 or more miles (10+ km)
Ceiling: 2100 feet AGL
Clouds: broken clouds at 2100 feet AGL
Weather: no significant weather observed at this time

METAR text: EGLL 212320Z AUTO 17005KT 9999 BKN025 11/08 Q1031 NOSIG
Conditions at: EGLL (LONDON/HEATHROW , GB) observed 2320 UTC 21 March 2019
Temperature: 11.0°C (52°F)
Dewpoint: 8.0°C (46°F) [RH = 82%]
Pressure (altimeter): 30.44 inches Hg (1031.0 mb)
Winds: from the S (170 degrees) at 6 MPH (5 knots; 2.6 m/s)
Visibility: 6 or more miles (10+ km)
Ceiling: 2500 feet AGL
Clouds: broken clouds at 2500 feet AGL
Weather: no significant weather observed at this time

METAR text: EGLL 212250Z AUTO 20005KT 160V240 9999 BKN026 11/08 Q1031 NOSIG
Conditions at: EGLL (LONDON/HEATHROW , GB) observed 2250 UTC 21 March 2019
Temperature: 11.0°C (52°F)
Dewpoint: 8.0°C (46°F) [RH = 82%]
Pressure (altimeter): 30.44 inches Hg (1031.0 mb)
Winds: from the SSW (200 degrees) at 6 MPH (5 knots; 2.6 m/s)
Visibility: 6 or more miles (10+ km)
Ceiling: 2600 feet AGL
Clouds: broken clouds at 2600 feet AGL
Weather: no significant weather observed at this time

METAR text: EGLL 212220Z AUTO VRB04KT 9999 OVC027 11/09 Q1031 NOSIG
Conditions at: EGLL (LONDON/HEATHROW , GB) observed 2220 UTC 21 March 2019
Temperature: 11.0°C (52°F)
Dewpoint: 9.0°C (48°F) [RH = 87%]
Pressure (altimeter): 30.44 inches Hg (1031.0 mb)
Winds: variable direction winds at 5 MPH (4 knots; 2.1 m/s)
Visibility: 6 or more miles (10+ km)
Ceiling: 2700 feet AGL
Clouds: overcast cloud deck at 2700 feet AGL
Weather: no significant weather observed at this time

METAR text: EGLL 212150Z AUTO 36002KT 9999 OVC027 12/09 Q1032 NOSIG
Conditions at: EGLL (LONDON/HEATHROW , GB) observed 2150 UTC 21 March 2019
Temperature: 12.0°C (54°F)
Dewpoint: 9.0°C (48°F) [RH = 82%]
Pressure (altimeter): 30.47 inches Hg (1032.0 mb)
Winds: from the N (360 degrees) at 2 MPH (2 knots; 1.0 m/s)
Visibility: 6 or more miles (10+ km)
Ceiling: 2700 feet AGL
Clouds: overcast cloud deck at 2700 feet AGL
Weather: no significant weather observed at this time

METAR text: EGLL 212120Z AUTO VRB02KT 9999 OVC026 12/09 Q1032 NOSIG
Conditions at: EGLL (LONDON/HEATHROW , GB) observed 2120 UTC 21 March 2019
Temperature: 12.0°C (54°F)
Dewpoint: 9.0°C (48°F) [RH = 82%]
Pressure (altimeter): 30.47 inches Hg (1032.0 mb)
Winds: variable direction winds at 2 MPH (2 knots; 1.0 m/s)
Visibility: 6 or more miles (10+ km)
Ceiling: 2600 feet AGL
Clouds: overcast cloud deck at 2600 feet AGL
Weather: no significant weather observed at this time

METAR text: EGLL 212050Z AUTO VRB03KT 9999 OVC018 12/09 Q1032
Conditions at: EGLL (LONDON/HEATHROW , GB) observed 2050 UTC 21 March 2019
Temperature: 12.0°C (54°F)
Dewpoint: 9.0°C (48°F) [RH = 82%]
Pressure (altimeter): 30.47 inches Hg (1032.0 mb)
Winds: variable direction winds at 3 MPH (3 knots; 1.5 m/s)
Visibility: 6 or more miles (10+ km)
Ceiling: 1800 feet AGL
Clouds: overcast cloud deck at 1800 feet AGL
Weather: no significant weather observed at this time

METAR text: EGLL 212020Z AUTO 32004KT 9999 BKN022 OVC027 13/09 Q1032 NOSIG
Conditions at: EGLL (LONDON/HEATHROW , GB) observed 2020 UTC 21 March 2019
Temperature: 13.0°C (55°F)
Dewpoint: 9.0°C (48°F) [RH = 77%]
Pressure (altimeter): 30.47 inches Hg (1032.0 mb)
Winds: from the NW (320 degrees) at 5 MPH (4 knots; 2.1 m/s)
Visibility: 6 or more miles (10+ km)
Ceiling: 2200 feet AGL
Clouds: broken clouds at 2200 feet AGL
overcast cloud deck at 2700 feet AGL
Weather: no significant weather observed at this time

METAR text: EGLL 211950Z AUTO VRB03KT 9999 BKN022 OVC026 13/08 Q1032 NOSIG
Conditions at: EGLL (LONDON/HEATHROW , GB) observed 1950 UTC 21 March 2019
Temperature: 13.0°C (55°F)
Dewpoint: 8.0°C (46°F) [RH = 72%]
Pressure (altimeter): 30.47 inches Hg (1032.0 mb)
Winds: variable direction winds at 3 MPH (3 knots; 1.5 m/s)
Visibility: 6 or more miles (10+ km)
Ceiling: 2200 feet AGL
Clouds: broken clouds at 2200 feet AGL
overcast cloud deck at 2600 feet AGL
Weather: no significant weather observed at this time

METAR text: EGLL 211920Z AUTO VRB03KT 9999 OVC022 13/08 Q1032 NOSIG
Conditions at: EGLL (LONDON/HEATHROW , GB) observed 1920 UTC 21 March 2019
Temperature: 13.0°C (55°F)
Dewpoint: 8.0°C (46°F) [RH = 72%]
Pressure (altimeter): 30.47 inches Hg (1032.0 mb)
Winds: variable direction winds at 3 MPH (3 knots; 1.5 m/s)
Visibility: 6 or more miles (10+ km)
Ceiling: 2200 feet AGL
Clouds: overcast cloud deck at 2200 feet AGL
Weather: no significant weather observed at this time

METAR text: EGLL 211850Z AUTO 25005KT 210V280 9999 OVC022 13/08 Q1032 NOSIG
Conditions at: EGLL (LONDON/HEATHROW , GB) observed 1850 UTC 21 March 2019
Temperature: 13.0°C (55°F)
Dewpoint: 8.0°C (46°F) [RH = 72%]
Pressure (altimeter): 30.47 inches Hg (1032.0 mb)
Winds: from the WSW (250 degrees) at 6 MPH (5 knots; 2.6 m/s)
Visibility: 6 or more miles (10+ km)
Ceiling: 2200 feet AGL
Clouds: overcast cloud deck at 2200 feet AGL
Weather: no significant weather observed at this time

METAR text: EGLL 211820Z AUTO 24006KT 210V280 9999 OVC022 13/09 Q1032
Conditions at: EGLL (LONDON/HEATHROW , GB) observed 1820 UTC 21 March 2019
Temperature: 13.0°C (55°F)
Dewpoint: 9.0°C (48°F) [RH = 77%]
Pressure (altimeter): 30.47 inches Hg (1032.0 mb)
Winds: from the WSW (240 degrees) at 7 MPH (6 knots; 3.1 m/s)
Visibility: 6 or more miles (10+ km)
Ceiling: 2200 feet AGL
Clouds: overcast cloud deck at 2200 feet AGL
Weather: no significant weather observed at this time

METAR text: EGLL 211750Z AUTO 29003KT 9999 OVC021 13/08 Q1032 NOSIG
Conditions at: EGLL (LONDON/HEATHROW , GB) observed 1750 UTC 21 March 2019
Temperature: 13.0°C (55°F)
Dewpoint: 8.0°C (46°F) [RH = 72%]
Pressure (altimeter): 30.47 inches Hg (1032.0 mb)
Winds: from the WNW (290 degrees) at 3 MPH (3 knots; 1.5 m/s)
Visibility: 6 or more miles (10+ km)
Ceiling: 2100 feet AGL
Clouds: overcast cloud deck at 2100 feet AGL
Weather: no significant weather observed at this time

METAR text: EGLL 211720Z AUTO VRB03KT 9999 OVC022 13/09 Q1032 NOSIG
Conditions at: EGLL (LONDON/HEATHROW , GB) observed 1720 UTC 21 March 2019
Temperature: 13.0°C (55°F)
Dewpoint: 9.0°C (48°F) [RH = 77%]
Pressure (altimeter): 30.47 inches Hg (1032.0 mb)
Winds: variable direction winds at 3 MPH (3 knots; 1.5 m/s)
Visibility: 6 or more miles (10+ km)
Ceiling: 2200 feet AGL
Clouds: overcast cloud deck at 2200 feet AGL
Weather: no significant weather observed at this time

METAR text: EGLL 211650Z AUTO 32004KT 9999 OVC021 13/09 Q1032 NOSIG
Conditions at: EGLL (LONDON/HEATHROW , GB) observed 1650 UTC 21 March 2019
Temperature: 13.0°C (55°F)
Dewpoint: 9.0°C (48°F) [RH = 77%]
Pressure (altimeter): 30.47 inches Hg (1032.0 mb)
Winds: from the NW (320 degrees) at 5 MPH (4 knots; 2.1 m/s)
Visibility: 6 or more miles (10+ km)
Ceiling: 2100 feet AGL
Clouds: overcast cloud deck at 2100 feet AGL
Weather: no significant weather observed at this time

METAR text: EGLL 211620Z AUTO 31004KT 9999 OVC022 13/09 Q1032 NOSIG
Conditions at: EGLL (LONDON/HEATHROW , GB) observed 1620 UTC 21 March 2019
Temperature: 13.0°C (55°F)
Dewpoint: 9.0°C (48°F) [RH = 77%]
Pressure (altimeter): 30.47 inches Hg (1032.0 mb)
Winds: from the NW (310 degrees) at 5 MPH (4 knots; 2.1 m/s)
Visibility: 6 or more miles (10+ km)
Ceiling: 2200 feet AGL
Clouds: overcast cloud deck at 2200 feet AGL
Weather: no significant weather observed at this time

METAR text: EGLL 211550Z AUTO 31004KT 270V010 9999 OVC021 13/09 Q1032
Conditions at: EGLL (LONDON/HEATHROW , GB) observed 1550 UTC 21 March 2019
Temperature: 13.0°C (55°F)
Dewpoint: 9.0°C (48°F) [RH = 77%]
Pressure (altimeter): 30.47 inches Hg (1032.0 mb)
Winds: from the NW (310 degrees) at 5 MPH (4 knots; 2.1 m/s)
Visibility: 6 or more miles (10+ km)
Ceiling: 2100 feet AGL
Clouds: overcast cloud deck at 2100 feet AGL
Weather: no significant weather observed at this time

METAR text: EGLL 211520Z AUTO 28005KT 240V330 9999 BKN021 OVC025 13/09 Q1032 NOSIG
Conditions at: EGLL (LONDON/HEATHROW , GB) observed 1520 UTC 21 March 2019
Temperature: 13.0°C (55°F)
Dewpoint: 9.0°C (48°F) [RH = 77%]
Pressure (altimeter): 30.47 inches Hg (1032.0 mb)
Winds: from the W (280 degrees) at 6 MPH (5 knots; 2.6 m/s)
Visibility: 6 or more miles (10+ km)
Ceiling: 2100 feet AGL
Clouds: broken clouds at 2100 feet AGL
overcast cloud deck at 2500 feet AGL
Weather: no significant weather observed at this time

METAR text: EGLL 211450Z AUTO 30004KT 240V350 9999 BKN021 OVC026 14/09 Q1032 NOSIG
Conditions at: EGLL (LONDON/HEATHROW , GB) observed 1450 UTC 21 March 2019
Temperature: 14.0°C (57°F)
Dewpoint: 9.0°C (48°F) [RH = 72%]
Pressure (altimeter): 30.47 inches Hg (1032.0 mb)
Winds: from the WNW (300 degrees) at 5 MPH (4 knots; 2.1 m/s)
Visibility: 6 or more miles (10+ km)
Ceiling: 2100 feet AGL
Clouds: broken clouds at 2100 feet AGL
overcast cloud deck at 2600 feet AGL
Weather: no significant weather observed at this time

METAR text: EGLL 211420Z AUTO 29006KT 250V320 9999 BKN020 14/09 Q1033 NOSIG
Conditions at: EGLL (LONDON/HEATHROW , GB) observed 1420 UTC 21 March 2019
Temperature: 14.0°C (57°F)
Dewpoint: 9.0°C (48°F) [RH = 72%]
Pressure (altimeter): 30.50 inches Hg (1033.0 mb)
Winds: from the WNW (290 degrees) at 7 MPH (6 knots; 3.1 m/s)
Visibility: 6 or more miles (10+ km)
Ceiling: 2000 feet AGL
Clouds: broken clouds at 2000 feet AGL
Weather: no significant weather observed at this time

METAR text: EGLL 211350Z AUTO 28005KT 250V310 9999 BKN018 OVC028 13/09 Q1033 NOSIG
Conditions at: EGLL (LONDON/HEATHROW , GB) observed 1350 UTC 21 March 2019
Temperature: 13.0°C (55°F)
Dewpoint: 9.0°C (48°F) [RH = 77%]
Pressure (altimeter): 30.50 inches Hg (1033.0 mb)
Winds: from the W (280 degrees) at 6 MPH (5 knots; 2.6 m/s)
Visibility: 6 or more miles (10+ km)
Ceiling: 1800 feet AGL
Clouds: broken clouds at 1800 feet AGL
overcast cloud deck at 2800 feet AGL
Weather: no significant weather observed at this time

METAR text: EGLL 211320Z AUTO 27006KT 230V300 9999 OVC019 13/09 Q1034 NOSIG
Conditions at: EGLL (LONDON/HEATHROW , GB) observed 1320 UTC 21 March 2019
Temperature: 13.0°C (55°F)
Dewpoint: 9.0°C (48°F) [RH = 77%]
Pressure (altimeter): 30.53 inches Hg (1034.0 mb)
Winds: from the W (270 degrees) at 7 MPH (6 knots; 3.1 m/s)
Visibility: 6 or more miles (10+ km)
Ceiling: 1900 feet AGL
Clouds: overcast cloud deck at 1900 feet AGL
Weather: no significant weather observed at this time

METAR text: EGLL 211250Z AUTO 28005KT 240V320 9999 OVC019 13/09 Q1034 NOSIG
Conditions at: EGLL (LONDON/HEATHROW , GB) observed 1250 UTC 21 March 2019
Temperature: 13.0°C (55°F)
Dewpoint: 9.0°C (48°F) [RH = 77%]
Pressure (altimeter): 30.53 inches Hg (1034.0 mb)
Winds: from the W (280 degrees) at 6 MPH (5 knots; 2.6 m/s)
Visibility: 6 or more miles (10+ km)
Ceiling: 1900 feet AGL
Clouds: overcast cloud deck at 1900 feet AGL
Weather: no significant weather observed at this time

METAR text: EGLL 211220Z AUTO 27005KT 210V310 9999 OVC018 13/09 Q1034 NOSIG
Conditions at: EGLL (LONDON/HEATHROW , GB) observed 1220 UTC 21 March 2019
Temperature: 13.0°C (55°F)
Dewpoint: 9.0°C (48°F) [RH = 77%]
Pressure (altimeter): 30.53 inches Hg (1034.0 mb)
Winds: from the W (270 degrees) at 6 MPH (5 knots; 2.6 m/s)
Visibility: 6 or more miles (10+ km)
Ceiling: 1800 feet AGL
Clouds: overcast cloud deck at 1800 feet AGL
Weather: no significant weather observed at this time

METAR text: EGLL 211150Z AUTO 26004KT 220V310 9999 OVC017 13/09 Q1034 NOSIG
Conditions at: EGLL (LONDON/HEATHROW , GB) observed 1150 UTC 21 March 2019
Temperature: 13.0°C (55°F)
Dewpoint: 9.0°C (48°F) [RH = 77%]
Pressure (altimeter): 30.53 inches Hg (1034.0 mb)
Winds: from the W (260 degrees) at 5 MPH (4 knots; 2.1 m/s)
Visibility: 6 or more miles (10+ km)
Ceiling: 1700 feet AGL
Clouds: overcast cloud deck at 1700 feet AGL
Weather: no significant weather observed at this time

METAR text: EGLL 211120Z AUTO 27005KT 210V310 9999 OVC015 13/09 Q1034 NOSIG
Conditions at: EGLL (LONDON/HEATHROW , GB) observed 1120 UTC 21 March 2019
Temperature: 13.0°C (55°F)
Dewpoint: 9.0°C (48°F) [RH = 77%]
Pressure (altimeter): 30.53 inches Hg (1034.0 mb)
Winds: from the W (270 degrees) at 6 MPH (5 knots; 2.6 m/s)
Visibility: 6 or more miles (10+ km)
Ceiling: 1500 feet AGL
Clouds: overcast cloud deck at 1500 feet AGL
Weather: no significant weather observed at this time

METAR text: EGLL 211050Z AUTO 25006KT 210V280 9999 OVC014 12/09 Q1034 BECMG BKN016
Conditions at: EGLL (LONDON/HEATHROW , GB) observed 1050 UTC 21 March 2019
Temperature: 12.0°C (54°F)
Dewpoint: 9.0°C (48°F) [RH = 82%]
Pressure (altimeter): 30.53 inches Hg (1034.0 mb)
Winds: from the WSW (250 degrees) at 7 MPH (6 knots; 3.1 m/s)
Visibility: 6 or more miles (10+ km)
Ceiling: 1400 feet AGL
Clouds: overcast cloud deck at 1400 feet AGL
Weather: no significant weather observed at this time

METAR text: EGLL 211020Z AUTO 25006KT 210V290 9999 OVC012 12/09 Q1034 BECMG BKN016
Conditions at: EGLL (LONDON/HEATHROW , GB) observed 1020 UTC 21 March 2019
Temperature: 12.0°C (54°F)
Dewpoint: 9.0°C (48°F) [RH = 82%]
Pressure (altimeter): 30.53 inches Hg (1034.0 mb)
Winds: from the WSW (250 degrees) at 7 MPH (6 knots; 3.1 m/s)
Visibility: 6 or more miles (10+ km)
Ceiling: 1200 feet AGL
Clouds: overcast cloud deck at 1200 feet AGL
Weather: no significant weather observed at this time

METAR text: EGLL 210950Z AUTO 25006KT 210V290 9999 OVC011 12/09 Q1034 BECMG BKN016
Conditions at: EGLL (LONDON/HEATHROW , GB) observed 0950 UTC 21 March 2019
Temperature: 12.0°C (54°F)
Dewpoint: 9.0°C (48°F) [RH = 82%]
Pressure (altimeter): 30.53 inches Hg (1034.0 mb)
Winds: from the WSW (250 degrees) at 7 MPH (6 knots; 3.1 m/s)
Visibility: 6 or more miles (10+ km)
Ceiling: 1100 feet AGL
Clouds: overcast cloud deck at 1100 feet AGL
Weather: no significant weather observed at this time

METAR text: EGLL 210920Z AUTO 25006KT 9999 OVC011 11/09 Q1034 BECMG BKN016
Conditions at: EGLL (LONDON/HEATHROW , GB) observed 0920 UTC 21 March 2019
Temperature: 11.0°C (52°F)
Dewpoint: 9.0°C (48°F) [RH = 87%]
Pressure (altimeter): 30.53 inches Hg (1034.0 mb)
Winds: from the WSW (250 degrees) at 7 MPH (6 knots; 3.1 m/s)
Visibility: 6 or more miles (10+ km)
Ceiling: 1100 feet AGL
Clouds: overcast cloud deck at 1100 feet AGL
Weather: no significant weather observed at this time

METAR text: EGLL 210850Z AUTO 22007KT 9999 OVC013 11/09 Q1034 BECMG BKN016
Conditions at: EGLL (LONDON/HEATHROW , GB) observed 0850 UTC 21 March 2019
Temperature: 11.0°C (52°F)
Dewpoint: 9.0°C (48°F) [RH = 87%]
Pressure (altimeter): 30.53 inches Hg (1034.0 mb)
Winds: from the SW (220 degrees) at 8 MPH (7 knots; 3.6 m/s)
Visibility: 6 or more miles (10+ km)
Ceiling: 1300 feet AGL
Clouds: overcast cloud deck at 1300 feet AGL
Weather: no significant weather observed at this time

METAR text: EGLL 210820Z AUTO 20007KT 9999 OVC014 10/08 Q1034 BECMG SCT016
Conditions at: EGLL (LONDON/HEATHROW , GB) observed 0820 UTC 21 March 2019
Temperature: 10.0°C (50°F)
Dewpoint: 8.0°C (46°F) [RH = 87%]
Pressure (altimeter): 30.53 inches Hg (1034.0 mb)
Winds: from the SSW (200 degrees) at 8 MPH (7 knots; 3.6 m/s)
Visibility: 6 or more miles (10+ km)
Ceiling: 1400 feet AGL
Clouds: overcast cloud deck at 1400 feet AGL
Weather: no significant weather observed at this time

METAR text: EGLL 210750Z AUTO 21006KT 170V270 9999 OVC014 10/08 Q1034 BECMG SCT016
Conditions at: EGLL (LONDON/HEATHROW , GB) observed 0750 UTC 21 March 2019
Temperature: 10.0°C (50°F)
Dewpoint: 8.0°C (46°F) [RH = 87%]
Pressure (altimeter): 30.53 inches Hg (1034.0 mb)
Winds: from the SSW (210 degrees) at 7 MPH (6 knots; 3.1 m/s)
Visibility: 6 or more miles (10+ km)
Ceiling: 1400 feet AGL
Clouds: overcast cloud deck at 1400 feet AGL
Weather: no significant weather observed at this time

METAR text: EGLL 210720Z AUTO 22006KT 9999 OVC013 10/08 Q1033 BECMG BKN015
Conditions at: EGLL (LONDON/HEATHROW , GB) observed 0720 UTC 21 March 2019
Temperature: 10.0°C (50°F)
Dewpoint: 8.0°C (46°F) [RH = 87%]
Pressure (altimeter): 30.50 inches Hg (1033.0 mb)
Winds: from the SW (220 degrees) at 7 MPH (6 knots; 3.1 m/s)
Visibility: 6 or more miles (10+ km)
Ceiling: 1300 feet AGL
Clouds: overcast cloud deck at 1300 feet AGL
Weather: no significant weather observed at this time

METAR text: EGLL 210650Z AUTO 23007KT 9000 SCT008 OVC014 09/08 Q1033 TEMPO BKN012
Conditions at: EGLL (LONDON/HEATHROW , GB) observed 0650 UTC 21 March 2019
Temperature: 9.0°C (48°F)
Dewpoint: 8.0°C (46°F) [RH = 93%]
Pressure (altimeter): 30.50 inches Hg (1033.0 mb)
Winds: from the SW (230 degrees) at 8 MPH (7 knots; 3.6 m/s)
Visibility: 6 miles ( 9 km)
Ceiling: 1400 feet AGL
Clouds: scattered clouds at 800 feet AGL
overcast cloud deck at 1400 feet AGL
Weather: no significant weather observed at this time

METAR text: EGLL 210620Z 24007KT 7000 OVC008 09/08 Q1033 TEMPO BKN012
Conditions at: EGLL (LONDON/HEATHROW , GB) observed 0620 UTC 21 March 2019
Temperature: 9.0°C (48°F)
Dewpoint: 8.0°C (46°F) [RH = 93%]
Pressure (altimeter): 30.50 inches Hg (1033.0 mb)
Winds: from the WSW (240 degrees) at 8 MPH (7 knots; 3.6 m/s)
Visibility: 4 miles ( 7 km)
Ceiling: 800 feet AGL
Clouds: overcast cloud deck at 800 feet AGL
Weather: no significant weather observed at this time

METAR text: EGLL 210550Z 27006KT 6000 -DZ FEW004 BKN008 09/08 Q1033 TEMPO BKN010
Conditions at: EGLL (LONDON/HEATHROW , GB) observed 0550 UTC 21 March 2019
Temperature: 9.0°C (48°F)
Dewpoint: 8.0°C (46°F) [RH = 93%]
Pressure (altimeter): 30.50 inches Hg (1033.0 mb)
Winds: from the W (270 degrees) at 7 MPH (6 knots; 3.1 m/s)
Visibility: 4 miles ( 6 km)
Ceiling: 800 feet AGL
Clouds: few clouds at 400 feet AGL
broken clouds at 800 feet AGL
Weather: -DZ  (light drizzle)

METAR text: EGLL 210520Z AUTO 26007KT 5000 HZ OVC008 09/08 Q1033 NOSIG
Conditions at: EGLL (LONDON/HEATHROW , GB) observed 0520 UTC 21 March 2019
Temperature: 9.0°C (48°F)
Dewpoint: 8.0°C (46°F) [RH = 93%]
Pressure (altimeter): 30.50 inches Hg (1033.0 mb)
Winds: from the W (260 degrees) at 8 MPH (7 knots; 3.6 m/s)
Visibility: 3 miles ( 5 km)
Ceiling: 800 feet AGL
Clouds: overcast cloud deck at 800 feet AGL
Weather: HZ  (haze)

METAR text: EGLL 210450Z AUTO 27006KT 9999 OVC009 09/08 Q1033 TEMPO BKN012
Conditions at: EGLL (LONDON/HEATHROW , GB) observed 0450 UTC 21 March 2019
Temperature: 9.0°C (48°F)
Dewpoint: 8.0°C (46°F) [RH = 93%]
Pressure (altimeter): 30.50 inches Hg (1033.0 mb)
Winds: from the W (270 degrees) at 7 MPH (6 knots; 3.1 m/s)
Visibility: 6 or more miles (10+ km)
Ceiling: 900 feet AGL
Clouds: overcast cloud deck at 900 feet AGL
Weather: no significant weather observed at this time

METAR text: EGLL 210420Z AUTO 27006KT 9999 OVC009 09/07 Q1033 TEMPO BKN012
Conditions at: EGLL (LONDON/HEATHROW , GB) observed 0420 UTC 21 March 2019
Temperature: 9.0°C (48°F)
Dewpoint: 7.0°C (45°F) [RH = 87%]
Pressure (altimeter): 30.50 inches Hg (1033.0 mb)
Winds: from the W (270 degrees) at 7 MPH (6 knots; 3.1 m/s)
Visibility: 6 or more miles (10+ km)
Ceiling: 900 feet AGL
Clouds: overcast cloud deck at 900 feet AGL
Weather: no significant weather observed at this time

METAR text: EGLL 210350Z AUTO 27008KT 9999 OVC010 09/07 Q1033 NOSIG
Conditions at: EGLL (LONDON/HEATHROW , GB) observed 0350 UTC 21 March 2019
Temperature: 9.0°C (48°F)
Dewpoint: 7.0°C (45°F) [RH = 87%]
Pressure (altimeter): 30.50 inches Hg (1033.0 mb)
Winds: from the W (270 degrees) at 9 MPH (8 knots; 4.1 m/s)
Visibility: 6 or more miles (10+ km)
Ceiling: 1000 feet AGL
Clouds: overcast cloud deck at 1000 feet AGL
Weather: no significant weather observed at this time

METAR text: EGLL 210320Z AUTO 27008KT 9999 OVC011 10/07 Q1033 NOSIG
Conditions at: EGLL (LONDON/HEATHROW , GB) observed 0320 UTC 21 March 2019
Temperature: 10.0°C (50°F)
Dewpoint: 7.0°C (45°F) [RH = 82%]
Pressure (altimeter): 30.50 inches Hg (1033.0 mb)
Winds: from the W (270 degrees) at 9 MPH (8 knots; 4.1 m/s)
Visibility: 6 or more miles (10+ km)
Ceiling: 1100 feet AGL
Clouds: overcast cloud deck at 1100 feet AGL
Weather: no significant weather observed at this time

METAR text: EGLL 210250Z AUTO 27009KT 9999 OVC011 10/08 Q1033 NOSIG
Conditions at: EGLL (LONDON/HEATHROW , GB) observed 0250 UTC 21 March 2019
Temperature: 10.0°C (50°F)
Dewpoint: 8.0°C (46°F) [RH = 87%]
Pressure (altimeter): 30.50 inches Hg (1033.0 mb)
Winds: from the W (270 degrees) at 10 MPH (9 knots; 4.6 m/s)
Visibility: 6 or more miles (10+ km)
Ceiling: 1100 feet AGL
Clouds: overcast cloud deck at 1100 feet AGL
Weather: no significant weather observed at this time

METAR text: EGLL 210220Z AUTO 23006KT 9999 OVC011 09/07 Q1033 NOSIG
Conditions at: EGLL (LONDON/HEATHROW , GB) observed 0220 UTC 21 March 2019
Temperature: 9.0°C (48°F)
Dewpoint: 7.0°C (45°F) [RH = 87%]
Pressure (altimeter): 30.50 inches Hg (1033.0 mb)
Winds: from the SW (230 degrees) at 7 MPH (6 knots; 3.1 m/s)
Visibility: 6 or more miles (10+ km)
Ceiling: 1100 feet AGL
Clouds: overcast cloud deck at 1100 feet AGL
Weather: no significant weather observed at this time

METAR text: EGLL 210150Z AUTO 21006KT 9999 OVC012 09/07 Q1033 TEMPO BKN015
Conditions at: EGLL (LONDON/HEATHROW , GB) observed 0150 UTC 21 March 2019
Temperature: 9.0°C (48°F)
Dewpoint: 7.0°C (45°F) [RH = 87%]
Pressure (altimeter): 30.50 inches Hg (1033.0 mb)
Winds: from the SSW (210 degrees) at 7 MPH (6 knots; 3.1 m/s)
Visibility: 6 or more miles (10+ km)
Ceiling: 1200 feet AGL
Clouds: overcast cloud deck at 1200 feet AGL
Weather: no significant weather observed at this time

METAR text: EGLL 210120Z AUTO 21007KT 9999 OVC014 09/07 Q1033 TEMPO BKN015
Conditions at: EGLL (LONDON/HEATHROW , GB) observed 0120 UTC 21 March 2019
Temperature: 9.0°C (48°F)
Dewpoint: 7.0°C (45°F) [RH = 87%]
Pressure (altimeter): 30.50 inches Hg (1033.0 mb)
Winds: from the SSW (210 degrees) at 8 MPH (7 knots; 3.6 m/s)
Visibility: 6 or more miles (10+ km)
Ceiling: 1400 feet AGL
Clouds: overcast cloud deck at 1400 feet AGL
Weather: no significant weather observed at this time

METAR text: EGLL 210050Z AUTO 21007KT 9999 OVC015 10/08 Q1033 TEMPO BKN014
Conditions at: EGLL (LONDON/HEATHROW , GB) observed 0050 UTC 21 March 2019
Temperature: 10.0°C (50°F)
Dewpoint: 8.0°C (46°F) [RH = 87%]
Pressure (altimeter): 30.50 inches Hg (1033.0 mb)
Winds: from the SSW (210 degrees) at 8 MPH (7 knots; 3.6 m/s)
Visibility: 6 or more miles (10+ km)
Ceiling: 1500 feet AGL
Clouds: overcast cloud deck at 1500 feet AGL
Weather: no significant weather observed at this time

METAR text: EGLL 210020Z AUTO 21007KT 9999 OVC015 10/07 Q1033 TEMPO BKN014
Conditions at: EGLL (LONDON/HEATHROW , GB) observed 0020 UTC 21 March 2019
Temperature: 10.0°C (50°F)
Dewpoint: 7.0°C (45°F) [RH = 82%]
Pressure (altimeter): 30.50 inches Hg (1033.0 mb)
Winds: from the SSW (210 degrees) at 8 MPH (7 knots; 3.6 m/s)
Visibility: 6 or more miles (10+ km)
Ceiling: 1500 feet AGL
Clouds: overcast cloud deck at 1500 feet AGL
Weather: no significant weather observed at this time

Forecast for: EGLL (LONDON/HEATHROW , GB)
Text: TAF EGLL 221054Z 2212/2318 22008KT 9999 BKN018
Forecast period: 1200 UTC 22 March 2019 to 0500 UTC 23 March 2019
Forecast type: FROM: standard forecast or significant change
Winds: from the SW (220 degrees) at 9 MPH (8 knots; 4.1 m/s)
Visibility: 6 or more miles 10+ km)
Ceiling: 1800 feet AGL
Clouds: broken clouds at 1800 feet AGL
Weather: no significant weather forecast for this period
Text: PROB30
Forecast period: 1200 to 1500 UTC 22 March 2019
Forecast type: TEMPORARY: The following changes expected for less than half the time period
Visibility: missing
Ceiling: 1400 feet AGL
Clouds: broken clouds at 1400 feet AGL
Weather: no significant weather forecast for this period
Text: TEMPO 2212/2215 BKN014
Forecast period: 0200 to 1000 UTC 23 March 2019
Forecast type: TEMPORARY: The following changes expected for less than half the time period
Visibility: 4 miles (7 km)
Ceiling: 1200 feet AGL
Clouds: broken clouds at 1200 feet AGL
Weather: -RA -DZ  (light rain, light drizzle)
Text: TEMPO 2302/2310 7000 -RADZ BKN012
Forecast period: 0500 to 1800 UTC 23 March 2019
Forecast type: BECOMING: Conditions expected to become as follows by 0800 UTC 23 March 2019
Winds: from the NNE (20 degrees) at 12 MPH (10 knots; 5.1 m/s)
Visibility: 6 or more miles 10+ km)
Ceiling: 1800 feet AGL
Clouds: broken clouds at 1800 feet AGL
Weather: no significant weather forecast for this period